createdAt,value
2018-06-28T00:00:12.697Z,16.80
2018-06-28T00:02:16.607Z,16.80
2018-06-28T00:04:20.404Z,16.70
2018-06-28T00:06:25.290Z,16.80
2018-06-28T00:08:29.224Z,16.80
2018-06-28T00:10:33.072Z,16.70
2018-06-28T00:12:37.016Z,16.70
2018-06-28T00:14:40.878Z,16.60
2018-06-28T00:16:45.789Z,16.60
2018-06-28T00:18:49.632Z,16.40
2018-06-28T00:20:53.486Z,16.40
2018-06-28T00:22:57.354Z,16.30
2018-06-28T00:25:01.248Z,16.20
2018-06-28T00:27:05.108Z,16.10
2018-06-28T00:29:08.890Z,16.00
2018-06-28T00:31:16.066Z,15.90
2018-06-28T00:33:19.910Z,16.00
2018-06-28T00:35:23.673Z,15.90
2018-06-28T00:37:29.620Z,15.90
2018-06-28T00:39:33.461Z,15.70
2018-06-28T00:41:37.341Z,15.70
2018-06-28T00:43:41.323Z,15.80
2018-06-28T00:45:45.028Z,15.80
2018-06-28T00:47:48.952Z,15.90
2018-06-28T00:49:52.675Z,15.80
2018-06-28T00:51:56.532Z,15.90
2018-06-28T00:54:00.357Z,15.80
2018-06-28T00:56:04.320Z,15.80
2018-06-28T00:58:08.157Z,15.80
2018-06-28T01:00:12.058Z,15.80
2018-06-28T01:02:15.848Z,15.70
2018-06-28T01:04:19.689Z,15.40
2018-06-28T01:06:23.599Z,15.30
2018-06-28T01:08:27.418Z,15.30
2018-06-28T01:10:31.193Z,15.20
2018-06-28T01:12:35.142Z,15.40
2018-06-28T01:14:38.927Z,15.40
2018-06-28T01:16:42.936Z,15.50
2018-06-28T01:18:46.702Z,15.50
2018-06-28T01:20:50.606Z,15.50
2018-06-28T01:22:54.465Z,15.60
2018-06-28T01:24:58.483Z,15.60
2018-06-28T01:27:02.292Z,15.30
2018-06-28T01:29:06.182Z,15.20
2018-06-28T01:31:09.969Z,15.20
2018-06-28T01:33:13.831Z,15.20
2018-06-28T01:35:17.682Z,15.20
2018-06-28T01:37:21.553Z,15.20
2018-06-28T01:39:25.551Z,15.20
2018-06-28T01:41:40.493Z,15.20
2018-06-28T01:43:45.354Z,15.10
2018-06-28T01:45:49.245Z,15.20
2018-06-28T01:49:56.595Z,14.80
2018-06-28T01:52:00.470Z,14.90
2018-06-28T01:54:04.220Z,15.00
2018-06-28T01:56:08.085Z,15.00
2018-06-28T01:58:11.876Z,15.10
2018-06-28T02:00:15.730Z,15.00
2018-06-28T02:02:19.527Z,14.90
2018-06-28T02:04:23.384Z,14.60
2018-06-28T02:06:27.291Z,14.60
2018-06-28T02:08:32.255Z,14.70
2018-06-28T02:10:36.325Z,14.70
2018-06-28T02:12:40.244Z,14.50
2018-06-28T02:14:44.097Z,14.50
2018-06-28T02:16:47.870Z,14.60
2018-06-28T02:18:51.700Z,14.60
2018-06-28T02:20:55.471Z,14.50
2018-06-28T02:22:59.350Z,14.50
2018-06-28T02:25:03.316Z,14.60
2018-06-28T02:27:07.289Z,14.50
2018-06-28T02:29:11.066Z,14.50
2018-06-28T02:31:15.102Z,14.50
2018-06-28T02:33:18.875Z,14.40
2018-06-28T02:35:22.740Z,14.60
2018-06-28T02:37:26.608Z,14.40
2018-06-28T02:39:30.398Z,14.20
2018-06-28T02:41:34.122Z,14.00
2018-06-28T02:43:38.107Z,14.20
2018-06-28T02:45:41.829Z,14.30
2018-06-28T02:47:45.764Z,14.30
2018-06-28T02:49:49.715Z,14.30
2018-06-28T02:51:53.543Z,14.20
2018-06-28T02:53:57.312Z,14.30
2018-06-28T02:56:01.180Z,14.20
2018-06-28T02:58:05.049Z,14.20
2018-06-28T03:00:08.978Z,14.10
2018-06-28T03:02:12.868Z,14.10
2018-06-28T03:04:16.687Z,14.10
2018-06-28T03:06:20.426Z,14.10
2018-06-28T03:08:24.329Z,14.10
2018-06-28T03:10:28.072Z,13.90
2018-06-28T03:12:31.979Z,14.00
2018-06-28T03:14:35.796Z,14.00
2018-06-28T03:16:39.726Z,14.00
2018-06-28T03:18:43.574Z,13.90
2018-06-28T03:20:47.481Z,13.90
2018-06-28T03:22:51.252Z,13.90
2018-06-28T03:24:55.090Z,14.10
2018-06-28T03:26:58.874Z,14.10
2018-06-28T03:29:02.675Z,14.10
2018-06-28T03:31:06.534Z,14.10
2018-06-28T03:33:10.320Z,14.00
2018-06-28T03:35:14.109Z,13.80
2018-06-28T03:37:17.914Z,13.80
2018-06-28T03:39:21.789Z,13.90
2018-06-28T03:41:25.660Z,14.00
2018-06-28T03:43:29.448Z,14.00
2018-06-28T03:45:33.284Z,13.90
2018-06-28T03:47:37.191Z,13.90
2018-06-28T03:49:41.091Z,13.90
2018-06-28T03:51:44.843Z,14.00
2018-06-28T03:53:48.674Z,14.00
2018-06-28T03:55:52.491Z,14.00
2018-06-28T03:57:57.398Z,14.00
2018-06-28T04:00:01.460Z,14.10
2018-06-28T04:02:05.323Z,14.10
2018-06-28T04:04:09.197Z,14.20
2018-06-28T04:08:16.940Z,14.10
2018-06-28T04:10:20.966Z,14.20
2018-06-28T04:12:24.751Z,14.20
2018-06-28T04:14:28.573Z,14.30
2018-06-28T04:16:32.398Z,14.40
2018-06-28T04:18:36.205Z,14.40
2018-06-28T04:20:40.157Z,14.40
2018-06-28T04:22:44.015Z,14.50
2018-06-28T04:24:47.785Z,14.70
2018-06-28T04:26:51.613Z,14.60
2018-06-28T04:28:55.551Z,14.80
2018-06-28T04:30:59.435Z,14.80
2018-06-28T04:33:03.259Z,14.90
2018-06-28T04:35:07.174Z,15.00
2018-06-28T04:37:10.941Z,15.40
2018-06-28T04:39:14.755Z,15.70
2018-06-28T04:41:18.538Z,15.90
2018-06-28T04:43:22.430Z,16.00
2018-06-28T04:45:26.207Z,16.30
2018-06-28T04:47:30.043Z,16.50
2018-06-28T04:49:33.794Z,16.50
2018-06-28T04:51:37.668Z,16.70
2018-06-28T04:53:41.381Z,16.90
2018-06-28T04:55:45.430Z,16.90
2018-06-28T04:57:49.240Z,16.70
2018-06-28T04:59:53.098Z,17.00
2018-06-28T05:01:56.956Z,17.20
2018-06-28T05:04:00.848Z,17.30
2018-06-28T05:06:04.994Z,17.20
2018-06-28T05:08:08.866Z,17.40
2018-06-28T05:10:12.669Z,17.40
2018-06-28T05:12:16.614Z,17.30
2018-06-28T05:14:20.444Z,17.40
2018-06-28T05:16:24.355Z,17.50
2018-06-28T05:18:28.184Z,17.60
2018-06-28T05:20:32.129Z,17.80
2018-06-28T05:22:35.904Z,18.00
2018-06-28T05:24:45.587Z,18.30
2018-06-28T05:26:49.697Z,18.30
2018-06-28T05:28:53.457Z,18.70
2018-06-28T05:30:57.484Z,18.70
2018-06-28T05:33:01.333Z,18.70
2018-06-28T05:35:05.798Z,18.90
2018-06-28T05:37:09.640Z,19.10
2018-06-28T05:39:13.475Z,19.40
2018-06-28T05:41:18.006Z,19.60
2018-06-28T05:43:23.073Z,19.80
2018-06-28T05:45:26.982Z,19.80
2018-06-28T05:47:30.766Z,19.80
2018-06-28T05:49:34.645Z,19.60
2018-06-28T05:51:38.394Z,20.00
2018-06-28T05:53:42.315Z,19.90
2018-06-28T05:55:46.166Z,19.70
2018-06-28T05:57:49.993Z,19.90
2018-06-28T05:59:53.740Z,19.70
2018-06-28T06:01:57.668Z,19.90
2018-06-28T06:04:01.499Z,20.00
2018-06-28T06:06:05.539Z,20.70
2018-06-28T06:08:09.325Z,21.00
2018-06-28T06:10:13.209Z,21.30
2018-06-28T06:12:17.019Z,21.40
2018-06-28T06:14:20.893Z,21.40
2018-06-28T06:16:24.658Z,21.20
2018-06-28T06:18:28.549Z,20.90
2018-06-28T06:20:32.359Z,21.40
2018-06-28T06:22:36.307Z,21.70
2018-06-28T06:24:40.087Z,22.20
2018-06-28T06:26:43.896Z,22.50
2018-06-28T06:28:47.640Z,22.50
2018-06-28T06:30:51.528Z,22.40
2018-06-28T06:32:55.248Z,22.70
2018-06-28T06:34:59.139Z,22.90
2018-06-28T06:37:02.993Z,23.00
2018-06-28T06:39:10.390Z,22.70
2018-06-28T06:41:14.404Z,22.00
2018-06-28T06:43:18.218Z,22.20
2018-06-28T06:45:22.114Z,22.70
2018-06-28T06:47:25.980Z,23.10
2018-06-28T06:49:29.867Z,23.30
2018-06-28T06:51:33.673Z,23.50
2018-06-28T06:53:37.515Z,23.90
2018-06-28T06:55:41.377Z,24.30
2018-06-28T06:57:45.371Z,24.40
2018-06-28T06:59:49.167Z,24.30
2018-06-28T07:01:53.064Z,24.60
2018-06-28T07:03:56.837Z,24.60
2018-06-28T07:06:00.780Z,25.00
2018-06-28T07:08:04.677Z,25.00
2018-06-28T07:10:08.658Z,25.00
2018-06-28T07:12:12.470Z,24.50
2018-06-28T07:14:16.316Z,24.90
2018-06-28T07:16:20.077Z,25.70
2018-06-28T07:18:23.966Z,25.90
2018-06-28T07:20:27.723Z,26.10
2018-06-28T07:22:31.559Z,25.40
2018-06-28T07:24:35.358Z,25.70
2018-06-28T07:26:39.229Z,25.90
2018-06-28T07:28:43.013Z,26.10
2018-06-28T07:30:46.876Z,26.30
2018-06-28T07:32:50.759Z,26.60
2018-06-28T07:34:54.838Z,26.40
2018-06-28T07:36:58.721Z,27.00
2018-06-28T07:39:02.720Z,26.60
2018-06-28T07:41:06.558Z,26.90
2018-06-28T07:43:10.407Z,27.30
2018-06-28T07:45:14.229Z,26.50
2018-06-28T07:47:18.139Z,26.50
2018-06-28T07:49:21.905Z,27.20
2018-06-28T07:51:25.877Z,26.70
2018-06-28T07:53:29.701Z,26.50
2018-06-28T07:55:33.589Z,27.20
2018-06-28T07:57:37.416Z,27.90
2018-06-28T07:59:41.305Z,27.60
2018-06-28T08:01:45.065Z,26.90
2018-06-28T08:03:49.216Z,26.40
2018-06-28T08:05:53.003Z,27.30
2018-06-28T08:07:56.828Z,26.50
2018-06-28T08:10:00.603Z,26.20
2018-06-28T08:12:04.521Z,27.00
2018-06-28T08:14:08.333Z,27.40
2018-06-28T08:16:12.157Z,27.40
2018-06-28T08:18:15.912Z,26.10
2018-06-28T08:20:19.833Z,26.60
2018-06-28T08:22:23.568Z,27.60
2018-06-28T08:24:27.399Z,26.80
2018-06-28T08:26:31.175Z,27.30
2018-06-28T08:28:35.002Z,26.60
2018-06-28T08:30:38.964Z,27.60
2018-06-28T08:32:42.860Z,27.70
2018-06-28T08:34:46.568Z,27.50
2018-06-28T08:36:50.450Z,27.50
2018-06-28T08:38:54.212Z,28.20
2018-06-28T08:40:58.222Z,27.50
2018-06-28T08:43:02.016Z,26.90
2018-06-28T08:45:06.005Z,27.80
2018-06-28T08:47:09.732Z,28.20
2018-06-28T08:49:13.562Z,27.10
2018-06-28T08:51:17.314Z,28.30
2018-06-28T08:53:21.212Z,28.80
2018-06-28T08:55:25.028Z,28.50
2018-06-28T08:57:28.859Z,28.20
2018-06-28T08:59:32.662Z,27.20
2018-06-28T09:01:36.678Z,27.10
2018-06-28T09:03:40.498Z,27.00
2018-06-28T09:05:44.552Z,27.60
2018-06-28T09:07:48.418Z,27.80
2018-06-28T09:09:52.351Z,27.60
2018-06-28T09:11:56.283Z,28.40
2018-06-28T09:14:00.160Z,28.70
2018-06-28T09:16:04.109Z,28.30
2018-06-28T09:18:08.004Z,28.60
2018-06-28T09:20:11.827Z,27.50
2018-06-28T09:22:15.835Z,27.90
2018-06-28T09:24:19.693Z,27.90
2018-06-28T09:26:23.660Z,28.00
2018-06-28T09:28:27.447Z,27.80
2018-06-28T09:30:31.307Z,28.30
2018-06-28T09:32:35.040Z,28.00
2018-06-28T09:34:38.925Z,27.60
2018-06-28T09:36:42.692Z,27.80
2018-06-28T09:38:46.494Z,28.30
2018-06-28T09:40:50.295Z,29.20
2018-06-28T09:42:54.205Z,28.30
2018-06-28T09:44:58.997Z,27.90
2018-06-28T09:47:03.006Z,28.80
2018-06-28T09:49:06.787Z,29.10
2018-06-28T09:51:10.746Z,28.50
2018-06-28T09:53:14.515Z,29.00
2018-06-28T09:55:18.673Z,29.00
2018-06-28T09:57:22.513Z,29.50
2018-06-28T09:59:26.424Z,28.90
2018-06-28T10:01:30.237Z,29.20
2018-06-28T10:03:34.096Z,30.00
2018-06-28T10:05:37.956Z,28.70
2018-06-28T10:07:41.888Z,29.30
2018-06-28T10:09:45.885Z,28.90
2018-06-28T10:11:49.738Z,28.70
2018-06-28T10:13:53.541Z,28.80
2018-06-28T10:15:57.368Z,28.70
2018-06-28T10:18:01.208Z,28.40
2018-06-28T10:20:05.194Z,28.10
2018-06-28T10:22:08.923Z,28.80
2018-06-28T10:26:16.261Z,28.90
2018-06-28T10:28:20.124Z,28.30
2018-06-28T10:30:23.993Z,28.00
2018-06-28T10:32:27.916Z,28.60
2018-06-28T10:34:31.692Z,28.10
2018-06-28T10:36:35.532Z,28.00
2018-06-28T10:38:39.313Z,28.30
2018-06-28T10:40:43.222Z,28.20
2018-06-28T10:42:46.979Z,28.50
2018-06-28T10:44:51.006Z,28.80
2018-06-28T10:46:54.793Z,28.70
2018-06-28T10:48:58.651Z,29.10
2018-06-28T10:51:02.400Z,28.50
2018-06-28T10:53:06.446Z,29.50
2018-06-28T10:55:10.218Z,28.60
2018-06-28T10:57:14.091Z,28.70
2018-06-28T10:59:17.901Z,27.60
2018-06-28T11:01:21.818Z,27.60
2018-06-28T11:03:25.624Z,28.30
2018-06-28T11:05:29.528Z,28.80
2018-06-28T11:07:33.348Z,28.90
2018-06-28T11:09:37.241Z,28.80
2018-06-28T11:11:41.486Z,28.30
2018-06-28T11:13:45.343Z,28.20
2018-06-28T11:15:49.156Z,28.60
2018-06-28T11:17:53.087Z,28.20
2018-06-28T11:19:56.872Z,28.60
2018-06-28T11:22:00.806Z,28.10
2018-06-28T11:24:04.664Z,28.10
2018-06-28T11:26:08.501Z,28.40
2018-06-28T11:28:12.258Z,28.30
2018-06-28T11:30:16.202Z,28.30
2018-06-28T11:32:20.012Z,28.10
2018-06-28T11:34:23.959Z,27.70
2018-06-28T11:36:27.722Z,28.00
2018-06-28T11:38:31.596Z,28.10
2018-06-28T11:40:35.330Z,28.40
2018-06-28T11:42:39.233Z,28.80
2018-06-28T11:44:42.962Z,28.60
2018-06-28T11:46:46.855Z,27.80
2018-06-28T11:48:50.693Z,27.80
2018-06-28T11:50:55.182Z,28.20
2018-06-28T11:52:59.059Z,28.30
2018-06-28T11:55:03.249Z,28.30
2018-06-28T11:57:07.122Z,28.70
2018-06-28T11:59:11.336Z,28.50
2018-06-28T12:01:15.235Z,28.20
2018-06-28T12:03:19.164Z,28.00
2018-06-28T12:05:23.113Z,28.20
2018-06-28T12:07:26.893Z,28.50
2018-06-28T12:09:30.711Z,28.50
2018-06-28T12:11:35.239Z,28.50
2018-06-28T12:13:39.233Z,28.20
2018-06-28T12:15:43.445Z,27.90
2018-06-28T12:17:47.220Z,28.10
2018-06-28T12:19:51.228Z,28.00
2018-06-28T12:21:55.020Z,28.00
2018-06-28T12:23:58.969Z,28.00
2018-06-28T12:26:02.752Z,27.90
2018-06-28T12:28:06.933Z,28.10
2018-06-28T12:30:10.672Z,28.10
2018-06-28T12:32:14.597Z,28.60
2018-06-28T12:34:18.495Z,28.30
2018-06-28T12:36:22.378Z,28.20
2018-06-28T12:38:26.214Z,28.10
2018-06-28T12:40:30.118Z,28.40
2018-06-28T12:42:33.958Z,28.10
2018-06-28T12:44:37.964Z,28.00
2018-06-28T12:48:22.819Z,27.80
2018-06-28T12:50:26.748Z,27.90
2018-06-28T12:52:40.359Z,27.30
2018-06-28T12:54:44.243Z,27.70
2018-06-28T12:56:50.715Z,27.90
2018-06-28T12:58:55.817Z,28.30
2018-06-28T13:00:59.697Z,27.90
2018-06-28T13:03:03.512Z,27.40
2018-06-28T13:05:07.592Z,27.40
2018-06-28T13:07:11.413Z,27.30
2018-06-28T13:09:16.905Z,27.20
2018-06-28T13:11:21.236Z,27.50
2018-06-28T13:13:25.137Z,27.90
2018-06-28T13:15:29.172Z,28.10
2018-06-28T13:17:33.106Z,28.40
2018-06-28T13:19:37.101Z,28.20
2018-06-28T13:21:41.030Z,28.30
2018-06-28T13:23:44.848Z,28.60
2018-06-28T13:25:48.620Z,28.50
2018-06-28T13:27:52.508Z,28.50
2018-06-28T13:29:56.341Z,28.30
2018-06-28T13:32:00.263Z,27.80
2018-06-28T13:34:04.102Z,27.40
2018-06-28T13:36:08.136Z,27.60
2018-06-28T13:38:11.958Z,28.00
2018-06-28T13:40:15.887Z,28.30
2018-06-28T13:42:19.845Z,28.10
2018-06-28T13:44:23.651Z,28.40
2018-06-28T13:46:27.511Z,28.30
2018-06-28T13:48:31.575Z,28.40
2018-06-28T13:50:35.395Z,28.80
2018-06-28T13:52:39.290Z,28.00
2018-06-28T13:54:43.113Z,27.30
2018-06-28T13:56:47.068Z,26.80
2018-06-28T13:58:51.137Z,26.50
2018-06-28T14:00:55.087Z,26.60
2018-06-28T14:02:59.039Z,27.10
2018-06-28T14:05:02.943Z,27.60
2018-06-28T14:07:08.798Z,27.40
2018-06-28T14:09:13.703Z,27.60
2018-06-28T14:11:17.825Z,27.90
2018-06-28T14:13:21.862Z,27.70
2018-06-28T14:15:25.697Z,27.90
2018-06-28T14:17:29.623Z,28.20
2018-06-28T14:19:33.479Z,28.00
2018-06-28T14:21:37.585Z,28.00
2018-06-28T14:23:41.463Z,28.10
2018-06-28T14:25:45.456Z,28.00
2018-06-28T14:27:49.271Z,28.20
2018-06-28T14:29:53.160Z,27.90
2018-06-28T14:31:58.016Z,28.00
2018-06-28T14:34:01.954Z,27.90
2018-06-28T14:36:05.859Z,28.20
2018-06-28T14:38:09.962Z,28.20
2018-06-28T14:40:13.797Z,28.10
2018-06-28T14:42:17.701Z,28.30
2018-06-28T14:44:22.206Z,27.70
2018-06-28T14:46:27.159Z,28.00
2018-06-28T14:48:31.019Z,28.10
2018-06-28T14:50:35.015Z,28.40
2018-06-28T14:52:38.901Z,28.10
2018-06-28T14:56:46.622Z,27.30
2018-06-28T14:58:54.314Z,27.00
2018-06-28T15:01:00.716Z,26.90
2018-06-28T15:03:04.747Z,27.20
2018-06-28T15:05:08.757Z,27.60
2018-06-28T15:07:12.685Z,27.80
2018-06-28T15:09:17.125Z,28.10
2018-06-28T15:11:21.063Z,27.90
2018-06-28T15:13:25.179Z,28.30
2018-06-28T15:15:29.259Z,28.50
2018-06-28T15:17:33.125Z,28.30
2018-06-28T15:19:37.190Z,27.80
2018-06-28T15:21:41.113Z,27.70
2018-06-28T15:23:45.543Z,27.60
2018-06-28T15:25:49.973Z,27.90
2018-06-28T15:27:54.159Z,28.00
2018-06-28T15:29:57.970Z,28.10
2018-06-28T15:32:02.071Z,28.30
2018-06-28T15:34:06.349Z,28.20
2018-06-28T15:36:10.315Z,28.30
2018-06-28T15:38:14.160Z,28.30
2018-06-28T15:40:18.099Z,28.30
2018-06-28T15:42:21.949Z,28.00
2018-06-28T15:44:26.317Z,27.70
2018-06-28T15:46:30.150Z,27.50
2018-06-28T15:48:34.136Z,27.60
2018-06-28T15:54:44.964Z,27.50
2018-06-28T15:56:48.962Z,27.50
2018-06-28T15:58:53.002Z,27.70
2018-06-28T16:00:56.857Z,27.80
2018-06-28T16:03:01.113Z,27.60
2018-06-28T16:05:05.004Z,27.60
2018-06-28T16:07:08.925Z,27.70
2018-06-28T16:09:12.966Z,27.60
2018-06-28T16:11:16.924Z,27.50
2018-06-28T16:13:20.928Z,27.60
2018-06-28T16:15:24.731Z,27.60
2018-06-28T16:17:29.779Z,27.70
2018-06-28T16:19:33.744Z,27.70
2018-06-28T16:21:37.538Z,27.60
2018-06-28T16:23:41.517Z,27.30
2018-06-28T16:25:45.531Z,27.00
2018-06-28T16:27:49.463Z,27.00
2018-06-28T16:29:53.249Z,27.30
2018-06-28T16:31:57.140Z,27.40
2018-06-28T16:34:01.157Z,27.30
2018-06-28T16:36:05.581Z,27.40
2018-06-28T16:38:09.383Z,27.50
2018-06-28T16:40:13.358Z,27.30
2018-06-28T16:42:17.153Z,27.10
2018-06-28T16:44:21.036Z,26.90
2018-06-28T16:46:24.951Z,26.80
2018-06-28T16:48:28.882Z,27.00
2018-06-28T16:50:32.728Z,27.10
2018-06-28T16:52:36.692Z,27.10
2018-06-28T16:54:40.437Z,27.20
2018-06-28T16:56:44.390Z,27.30
2018-06-28T16:58:48.162Z,27.30
2018-06-28T17:00:52.189Z,27.40
2018-06-28T17:02:55.948Z,27.30
2018-06-28T17:04:59.880Z,27.30
2018-06-28T17:07:03.790Z,27.40
2018-06-28T17:09:09.198Z,27.20
2018-06-28T17:11:13.093Z,27.10
2018-06-28T17:13:16.927Z,27.20
2018-06-28T17:15:20.916Z,27.20
2018-06-28T17:17:24.689Z,27.00
2018-06-28T17:19:28.547Z,26.80
2018-06-28T17:21:32.374Z,26.60
2018-06-28T17:23:37.271Z,26.50
2018-06-28T17:25:41.240Z,26.40
2018-06-28T17:27:45.175Z,26.50
2018-06-28T17:29:48.952Z,26.50
2018-06-28T17:31:52.932Z,26.70
2018-06-28T17:33:56.779Z,26.70
2018-06-28T17:36:00.672Z,26.80
2018-06-28T17:38:04.684Z,26.90
2018-06-28T17:40:08.731Z,26.90
2018-06-28T17:42:12.806Z,26.90
2018-06-28T17:44:16.682Z,26.80
2018-06-28T17:46:20.501Z,26.90
2018-06-28T17:48:26.608Z,26.80
2018-06-28T17:50:31.053Z,26.70
2018-06-28T17:52:34.836Z,26.70
2018-06-28T17:54:38.806Z,26.60
2018-06-28T17:56:42.634Z,26.50
2018-06-28T17:58:46.704Z,26.50
2018-06-28T18:00:50.941Z,26.50
2018-06-28T18:02:55.829Z,26.40
2018-06-28T18:05:02.747Z,26.40
2018-06-28T18:07:08.086Z,26.40
2018-06-28T18:09:42.125Z,26.40
2018-06-28T18:11:46.171Z,26.50
2018-06-28T18:13:49.980Z,26.50
2018-06-28T18:15:54.127Z,26.50
2018-06-28T18:17:57.993Z,26.50
2018-06-28T18:20:01.951Z,26.40
2018-06-28T18:22:05.846Z,26.20
2018-06-28T18:24:09.802Z,26.10
2018-06-28T18:26:13.600Z,26.10
2018-06-28T18:28:17.521Z,26.10
2018-06-28T18:30:21.487Z,26.00
2018-06-28T18:32:25.449Z,25.90
2018-06-28T18:34:29.485Z,25.90
2018-06-28T18:36:33.451Z,25.80
2018-06-28T18:38:37.525Z,25.70
2018-06-28T18:40:41.658Z,25.70
2018-06-28T18:42:45.609Z,25.60
2018-06-28T18:44:54.899Z,25.60
2018-06-28T18:46:59.363Z,25.50
2018-06-28T18:49:03.153Z,25.50
2018-06-28T18:51:07.482Z,25.40
2018-06-28T18:53:11.280Z,25.30
2018-06-28T18:55:15.278Z,25.20
2018-06-28T18:57:19.351Z,25.20
2018-06-28T18:59:23.667Z,25.10
2018-06-28T19:01:27.634Z,25.10
2018-06-28T19:03:31.689Z,25.00
2018-06-28T19:05:35.555Z,25.00
2018-06-28T19:07:39.486Z,24.90
2018-06-28T19:09:48.527Z,24.90
2018-06-28T19:11:54.302Z,24.80
2018-06-28T19:14:04.348Z,24.70
2018-06-28T19:16:13.718Z,24.70
2018-06-28T19:18:17.768Z,24.50
2018-06-28T19:20:21.551Z,24.60
2018-06-28T19:22:30.708Z,24.60
2018-06-28T19:24:34.775Z,24.50
2018-06-28T19:26:39.032Z,24.50
2018-06-28T19:28:46.123Z,24.40
2018-06-28T19:30:55.441Z,24.30
2018-06-28T19:33:04.553Z,24.40
2018-06-28T19:35:08.586Z,24.30
2018-06-28T19:37:16.719Z,24.20
2018-06-28T19:39:25.845Z,24.10
2018-06-28T19:41:35.144Z,24.10
2018-06-28T19:43:39.843Z,24.10
2018-06-28T19:45:43.882Z,24.00
2018-06-28T19:47:47.948Z,23.90
2018-06-28T19:49:57.919Z,23.90
2018-06-28T19:52:07.266Z,23.80
2018-06-28T19:54:11.154Z,23.80
2018-06-28T19:56:14.990Z,23.70
2018-06-28T19:58:18.922Z,23.70
2018-06-28T20:00:28.179Z,23.60
2018-06-28T20:02:37.306Z,23.60
2018-06-28T20:04:45.138Z,23.60
2018-06-28T20:06:49.043Z,23.40
2018-06-28T20:08:53.763Z,23.40
2018-06-28T20:10:57.647Z,23.40
2018-06-28T20:13:06.875Z,23.30
2018-06-28T20:15:16.324Z,23.30
2018-06-28T20:17:25.430Z,23.30
2018-06-28T20:21:38.221Z,23.20
2018-06-28T20:23:42.074Z,23.10
2018-06-28T20:25:46.080Z,23.00
2018-06-28T20:27:55.808Z,23.00
2018-06-28T20:30:04.876Z,22.90
2018-06-28T20:32:14.257Z,22.90
2018-06-28T20:34:18.244Z,22.80
2018-06-28T20:36:23.165Z,22.80
2018-06-28T20:38:26.996Z,22.70
2018-06-28T20:40:30.781Z,22.60
2018-06-28T20:42:34.641Z,22.60
2018-06-28T20:44:38.395Z,22.60
2018-06-28T20:46:42.306Z,22.50
2018-06-28T20:48:47.103Z,22.50
2018-06-28T20:50:51.292Z,22.50
2018-06-28T20:52:55.318Z,22.50
2018-06-28T20:54:59.222Z,22.30
2018-06-28T20:57:03.039Z,22.30
2018-06-28T20:59:07.147Z,22.20
2018-06-28T21:01:10.970Z,22.30
2018-06-28T21:03:14.873Z,22.20
2018-06-28T21:05:18.662Z,22.20
2018-06-28T21:07:22.754Z,22.20
2018-06-28T21:09:26.563Z,22.20
2018-06-28T21:11:30.833Z,22.20
2018-06-28T21:13:34.624Z,22.20
2018-06-28T21:15:38.514Z,22.10
2018-06-28T21:17:42.283Z,22.00
2018-06-28T21:19:46.264Z,22.00
2018-06-28T21:21:50.063Z,21.90
2018-06-28T21:23:53.977Z,21.90
2018-06-28T21:25:57.851Z,21.90
2018-06-28T21:28:01.822Z,21.90
2018-06-28T21:30:06.106Z,21.80
2018-06-28T21:32:10.092Z,21.80
2018-06-28T21:34:13.874Z,21.80
2018-06-28T21:36:17.808Z,21.80
2018-06-28T21:38:21.778Z,21.80
2018-06-28T21:40:25.707Z,21.70
2018-06-28T21:42:29.550Z,21.80
2018-06-28T21:44:33.572Z,21.80
2018-06-28T21:46:37.291Z,21.70
2018-06-28T21:48:41.333Z,21.70
2018-06-28T21:50:45.110Z,21.60
2018-06-28T21:52:49.024Z,21.60
2018-06-28T21:54:52.845Z,21.60
2018-06-28T21:56:56.851Z,21.50
2018-06-28T21:59:00.629Z,21.60
2018-06-28T22:01:04.592Z,21.60
2018-06-28T22:03:08.842Z,21.50
2018-06-28T22:05:12.784Z,21.50
2018-06-28T22:07:16.540Z,21.40
2018-06-28T22:09:21.019Z,21.30
2018-06-28T22:11:24.783Z,21.30
2018-06-28T22:13:28.702Z,21.30
2018-06-28T22:15:32.753Z,21.20
2018-06-28T22:17:36.707Z,21.20
2018-06-28T22:19:40.492Z,21.20
2018-06-28T22:21:44.463Z,21.20
2018-06-28T22:23:48.374Z,21.10
2018-06-28T22:25:52.305Z,21.10
2018-06-28T22:27:56.163Z,21.00
2018-06-28T22:30:00.072Z,21.00
2018-06-28T22:32:03.856Z,20.90
2018-06-28T22:34:07.776Z,20.80
2018-06-28T22:36:11.522Z,20.90
2018-06-28T22:38:15.520Z,20.90
2018-06-28T22:40:19.387Z,20.80
2018-06-28T22:42:23.287Z,20.80
2018-06-28T22:44:27.081Z,20.70
2018-06-28T22:46:30.955Z,20.70
2018-06-28T22:48:34.821Z,20.50
2018-06-28T22:50:38.708Z,20.50
2018-06-28T22:52:42.523Z,20.50
2018-06-28T22:54:46.398Z,20.50
2018-06-28T22:56:50.315Z,20.40
2018-06-28T22:58:54.204Z,20.30
2018-06-28T23:00:58.020Z,20.30
2018-06-28T23:03:01.961Z,20.30
2018-06-28T23:05:06.026Z,20.30
2018-06-28T23:07:09.969Z,20.30
2018-06-28T23:09:13.753Z,20.20
2018-06-28T23:11:17.648Z,20.20
2018-06-28T23:13:21.531Z,20.20
2018-06-28T23:15:25.409Z,20.10
2018-06-28T23:17:29.191Z,20.10
2018-06-28T23:19:33.143Z,20.10
2018-06-28T23:21:36.973Z,20.00
2018-06-28T23:23:40.952Z,20.10
2018-06-28T23:25:44.751Z,20.00
2018-06-28T23:27:49.496Z,19.90
2018-06-28T23:29:53.334Z,19.90
2018-06-28T23:31:57.200Z,19.90
2018-06-28T23:34:01.012Z,19.90
2018-06-28T23:36:05.131Z,19.90
2018-06-28T23:38:08.911Z,19.90
2018-06-28T23:40:12.762Z,19.90
2018-06-28T23:42:16.561Z,19.90
2018-06-28T23:44:20.413Z,19.80
2018-06-28T23:46:24.169Z,19.70
2018-06-28T23:48:28.072Z,19.70
2018-06-28T23:50:31.934Z,19.70
2018-06-28T23:52:35.946Z,19.70
2018-06-28T23:54:39.700Z,19.80
2018-06-28T23:56:43.578Z,19.70
2018-06-28T23:58:47.337Z,19.70
